createdAt,value
2024-05-09T00:00:39.492Z,4.43
2024-05-09T00:03:08.433Z,4.05
2024-05-09T00:05:36.926Z,3.78
2024-05-09T00:08:04.426Z,3.47
2024-05-09T00:10:36.412Z,5.28
2024-05-09T00:13:06.637Z,3.35
2024-05-09T00:15:34.189Z,3.15
2024-05-09T00:18:01.727Z,4.47
2024-05-09T00:20:36.842Z,3.20
2024-05-09T00:23:12.216Z,3.40
2024-05-09T00:25:39.833Z,5.03
2024-05-09T00:28:06.813Z,4.85
2024-05-09T00:30:36.152Z,4.78
2024-05-09T00:33:06.213Z,4.00
2024-05-09T00:35:34.528Z,4.35
2024-05-09T00:38:01.432Z,4.10
2024-05-09T00:40:39.085Z,4.40
2024-05-09T00:43:08.373Z,5.75
2024-05-09T00:45:35.945Z,4.05
2024-05-09T00:48:07.506Z,4.90
2024-05-09T00:50:38.158Z,3.78
2024-05-09T00:53:10.985Z,4.03
2024-05-09T00:55:39.127Z,3.97
2024-05-09T00:58:08.044Z,3.90
2024-05-09T01:00:39.311Z,5.13
2024-05-09T01:03:10.524Z,4.82
2024-05-09T01:05:39.611Z,7.43
2024-05-09T01:08:07.355Z,4.22
2024-05-09T01:10:35.583Z,5.53
2024-05-09T01:13:03.986Z,12.20
2024-05-09T01:15:30.816Z,6.53
2024-05-09T01:17:58.341Z,5.28
2024-05-09T01:20:36.592Z,5.10
2024-05-09T01:23:09.410Z,4.47
2024-05-09T01:25:36.531Z,5.38
2024-05-09T01:28:03.299Z,4.10
2024-05-09T01:30:34.806Z,4.57
2024-05-09T01:33:04.868Z,4.88
2024-05-09T01:35:32.294Z,4.25
2024-05-09T01:37:59.070Z,6.18
2024-05-09T01:40:36.125Z,4.22
2024-05-09T01:43:05.826Z,3.80
2024-05-09T01:45:32.510Z,4.13
2024-05-09T01:47:59.497Z,5.60
2024-05-09T01:50:37.222Z,4.60
2024-05-09T01:53:08.344Z,5.18
2024-05-09T01:55:35.214Z,4.68
2024-05-09T01:58:01.867Z,6.40
2024-05-09T02:00:37.366Z,4.55
2024-05-09T02:03:10.187Z,7.32
2024-05-09T02:05:37.955Z,5.70
2024-05-09T02:08:05.679Z,4.88
2024-05-09T02:10:33.323Z,5.75
2024-05-09T02:13:00.415Z,5.78
2024-05-09T02:15:27.092Z,4.95
2024-05-09T02:17:54.152Z,5.50
2024-05-09T02:20:30.198Z,5.35
2024-05-09T02:23:04.123Z,5.68
2024-05-09T02:25:32.028Z,4.78
2024-05-09T02:27:58.820Z,4.88
2024-05-09T02:30:35.647Z,5.32
2024-05-09T02:33:07.325Z,5.47
2024-05-09T02:35:39.334Z,6.45
2024-05-09T02:38:06.199Z,5.68
2024-05-09T02:40:37.056Z,6.80
2024-05-09T02:43:06.918Z,6.75
2024-05-09T02:45:33.807Z,5.38
2024-05-09T02:48:01.545Z,5.75
2024-05-09T02:50:36.982Z,5.53
2024-05-09T02:53:09.867Z,6.07
2024-05-09T02:55:38.422Z,6.13
2024-05-09T02:58:07.403Z,6.38
2024-05-09T03:00:38.953Z,5.45
2024-05-09T03:03:09.571Z,4.25
2024-05-09T03:05:37.837Z,6.00
2024-05-09T03:08:04.958Z,5.30
2024-05-09T03:10:36.174Z,6.07
2024-05-09T03:13:14.929Z,6.05
2024-05-09T03:15:43.127Z,6.85
2024-05-09T03:18:10.977Z,7.78
2024-05-09T03:20:38.636Z,6.88
2024-05-09T03:23:08.085Z,6.25
2024-05-09T03:25:36.022Z,9.70
2024-05-09T03:28:02.872Z,7.47
2024-05-09T03:30:38.370Z,8.05
2024-05-09T03:33:17.730Z,7.30
2024-05-09T03:35:46.490Z,6.28
2024-05-09T03:38:13.572Z,6.95
2024-05-09T03:40:47.817Z,8.38
2024-05-09T03:43:15.466Z,6.95
2024-05-09T03:45:43.033Z,6.80
2024-05-09T03:48:09.977Z,8.02
2024-05-09T03:50:37.561Z,9.93
2024-05-09T03:53:05.070Z,8.20
2024-05-09T03:55:32.109Z,7.10
2024-05-09T03:57:59.380Z,8.05
2024-05-09T04:00:34.598Z,7.32
2024-05-09T04:03:07.610Z,7.03
2024-05-09T04:05:38.116Z,8.88
2024-05-09T04:08:05.545Z,9.35
2024-05-09T04:10:34.235Z,8.23
2024-05-09T04:13:02.422Z,7.05
2024-05-09T04:15:29.625Z,7.35
2024-05-09T04:17:56.635Z,11.15
2024-05-09T04:20:34.337Z,8.65
2024-05-09T04:23:06.963Z,9.05
2024-05-09T04:25:34.431Z,7.95
2024-05-09T04:28:01.152Z,8.35
2024-05-09T04:30:36.461Z,7.88
2024-05-09T04:33:09.345Z,7.82
2024-05-09T04:35:38.419Z,8.55
2024-05-09T04:38:12.167Z,9.35
2024-05-09T04:40:38.938Z,7.30
2024-05-09T04:43:07.805Z,8.52
2024-05-09T04:45:34.827Z,7.95
2024-05-09T04:48:02.320Z,8.68
2024-05-09T04:50:35.996Z,8.18
2024-05-09T04:53:10.388Z,8.00
2024-05-09T04:55:38.251Z,10.25
2024-05-09T04:58:08.419Z,7.47
2024-05-09T05:00:37.482Z,5.97
2024-05-09T05:03:07.929Z,7.97
2024-05-09T05:05:38.140Z,7.30
2024-05-09T05:08:05.618Z,8.50
2024-05-09T05:10:36.215Z,7.57
2024-05-09T05:13:21.141Z,6.75
2024-05-09T05:15:56.450Z,9.85
2024-05-09T05:18:24.811Z,7.80
2024-05-09T05:20:51.926Z,8.18
2024-05-09T05:23:20.541Z,7.63
2024-05-09T05:25:49.423Z,9.63
2024-05-09T05:28:17.912Z,6.97
2024-05-09T05:30:44.883Z,9.15
2024-05-09T05:33:13.686Z,7.30
2024-05-09T05:35:41.665Z,11.93
2024-05-09T05:38:11.238Z,9.05
2024-05-09T05:40:39.250Z,7.78
2024-05-09T05:43:09.098Z,8.45
2024-05-09T05:45:35.994Z,8.65
2024-05-09T05:48:07.391Z,10.52
2024-05-09T05:50:37.387Z,12.20
2024-05-09T05:53:10.426Z,10.02
2024-05-09T05:55:39.058Z,11.25
2024-05-09T05:58:08.681Z,9.73
2024-05-09T06:00:38.799Z,11.50
2024-05-09T06:03:08.207Z,10.73
2024-05-09T06:05:36.766Z,13.52
2024-05-09T06:08:03.717Z,14.23
2024-05-09T06:10:37.739Z,12.20
2024-05-09T06:13:07.189Z,13.43
2024-05-09T06:15:34.106Z,14.18
2024-05-09T06:18:01.200Z,13.40
2024-05-09T06:20:35.475Z,11.43
2024-05-09T06:23:05.613Z,11.25
2024-05-09T06:25:32.528Z,13.60
2024-05-09T06:28:00.865Z,11.52
2024-05-09T06:30:36.837Z,10.32
2024-05-09T06:33:07.866Z,14.20
2024-05-09T06:35:35.208Z,12.82
2024-05-09T06:38:02.246Z,14.50
2024-05-09T06:40:36.904Z,11.13
2024-05-09T06:43:12.559Z,12.38
2024-05-09T06:45:40.070Z,12.45
2024-05-09T06:48:10.621Z,9.80
2024-05-09T06:50:39.238Z,10.43
2024-05-09T06:53:07.980Z,13.15
2024-05-09T06:55:34.926Z,9.45
2024-05-09T06:58:01.783Z,8.50
2024-05-09T07:00:35.730Z,9.85
2024-05-09T07:03:16.888Z,10.75
2024-05-09T07:05:46.514Z,8.18
2024-05-09T07:08:14.261Z,10.27
2024-05-09T07:10:44.484Z,8.23
2024-05-09T07:13:12.646Z,13.13
2024-05-09T07:15:40.267Z,7.78
2024-05-09T07:18:21.193Z,7.97
2024-05-09T07:20:49.588Z,9.20
2024-05-09T07:23:17.677Z,8.57
2024-05-09T07:25:44.519Z,9.85
2024-05-09T07:28:16.362Z,10.38
2024-05-09T07:30:43.689Z,9.70
2024-05-09T07:33:19.788Z,12.65
2024-05-09T07:35:48.068Z,8.77
2024-05-09T07:38:15.000Z,7.28
2024-05-09T07:40:41.895Z,12.50
2024-05-09T07:43:11.593Z,7.45
2024-05-09T07:45:48.574Z,7.25
2024-05-09T07:53:38.579Z,8.18
2024-05-09T07:56:07.497Z,6.95
2024-05-09T07:58:34.719Z,6.95
2024-05-09T08:01:02.831Z,7.80
2024-05-09T08:03:29.825Z,8.45
2024-05-09T08:05:56.904Z,7.68
2024-05-09T08:08:23.587Z,9.52
2024-05-09T08:10:50.828Z,7.43
2024-05-09T08:13:17.742Z,6.95
2024-05-09T08:15:44.577Z,6.95
2024-05-09T08:18:11.753Z,6.95
2024-05-09T08:20:42.186Z,7.18
2024-05-09T08:23:09.090Z,7.15
2024-05-09T08:25:38.839Z,6.50
2024-05-09T08:28:05.931Z,7.35
2024-05-09T08:30:36.641Z,7.38
2024-05-09T08:33:06.074Z,8.57
2024-05-09T08:35:33.434Z,10.13
2024-05-09T08:38:02.762Z,8.38
2024-05-09T08:40:35.415Z,8.30
2024-05-09T08:43:09.812Z,7.68
2024-05-09T08:45:39.048Z,8.63
2024-05-09T08:48:08.678Z,7.72
2024-05-09T08:50:40.396Z,7.03
2024-05-09T08:53:10.579Z,6.80
2024-05-09T08:55:41.535Z,8.85
2024-05-09T08:58:14.451Z,7.50
2024-05-09T09:00:43.285Z,9.98
2024-05-09T09:03:15.224Z,6.32
2024-05-09T09:05:53.111Z,5.25
2024-05-09T09:08:21.254Z,6.28
2024-05-09T09:10:49.149Z,9.15
2024-05-09T09:13:16.108Z,9.07
2024-05-09T09:15:57.463Z,6.88
2024-05-09T09:18:26.646Z,7.05
2024-05-09T09:20:53.782Z,5.53
2024-05-09T09:23:20.485Z,5.50
2024-05-09T09:25:47.604Z,5.65
2024-05-09T09:28:14.866Z,8.23
2024-05-09T09:30:42.967Z,5.78
2024-05-09T09:33:10.540Z,7.75
2024-05-09T09:35:39.776Z,6.53
2024-05-09T09:38:07.717Z,11.32
2024-05-09T09:40:39.207Z,6.68
2024-05-09T09:43:14.786Z,6.18
2024-05-09T09:45:44.463Z,12.85
2024-05-09T09:48:13.889Z,8.20
2024-05-09T09:50:42.057Z,7.38
2024-05-09T09:53:10.379Z,7.88
2024-05-09T09:55:38.018Z,8.18
2024-05-09T09:58:06.449Z,8.25
2024-05-09T10:00:34.747Z,11.23
2024-05-09T10:03:02.374Z,8.70
2024-05-09T10:05:30.250Z,8.10
2024-05-09T10:07:58.708Z,7.18
2024-05-09T10:10:32.186Z,8.63
2024-05-09T10:13:06.956Z,9.25
2024-05-09T10:15:52.832Z,11.95
2024-05-09T10:18:28.197Z,11.13
2024-05-09T10:20:57.517Z,9.05
2024-05-09T10:23:28.199Z,7.22
2024-05-09T10:26:01.674Z,7.00
2024-05-09T10:28:32.148Z,9.10
2024-05-09T10:31:12.156Z,7.78
2024-05-09T10:33:50.770Z,7.30
2024-05-09T10:36:25.093Z,5.57
2024-05-09T10:38:53.884Z,6.55
2024-05-09T10:41:21.988Z,7.03
2024-05-09T10:43:49.353Z,9.73
2024-05-09T10:46:16.719Z,10.25
2024-05-09T10:48:44.538Z,7.93
2024-05-09T10:51:11.769Z,8.88
2024-05-09T10:53:42.486Z,8.00
2024-05-09T10:56:09.800Z,7.75
2024-05-09T10:58:36.845Z,7.07
2024-05-09T11:01:06.866Z,7.90
2024-05-09T11:03:34.760Z,8.07
2024-05-09T11:06:01.794Z,8.30
2024-05-09T11:08:28.828Z,6.85
2024-05-09T11:10:56.537Z,6.82
2024-05-09T11:13:34.308Z,14.90
2024-05-09T11:16:01.804Z,8.13
2024-05-09T11:18:33.461Z,8.25
2024-05-09T11:21:03.017Z,7.10
2024-05-09T11:23:32.637Z,7.53
2024-05-09T11:25:59.492Z,8.50
2024-05-09T11:28:28.552Z,9.70
2024-05-09T11:31:07.567Z,7.43
2024-05-09T11:33:44.123Z,8.70
2024-05-09T11:36:11.166Z,8.63
2024-05-09T11:38:38.027Z,9.38
2024-05-09T11:41:05.783Z,7.90
2024-05-09T11:43:32.856Z,9.32
2024-05-09T11:46:00.329Z,8.00
2024-05-09T11:48:27.519Z,8.13
2024-05-09T11:50:55.590Z,8.23
2024-05-09T11:53:22.698Z,8.55
2024-05-09T11:55:49.527Z,8.43
2024-05-09T11:58:18.153Z,8.90
2024-05-09T12:00:45.817Z,7.53
2024-05-09T12:03:12.992Z,8.57
2024-05-09T12:05:39.836Z,6.82
2024-05-09T12:08:07.347Z,15.07
2024-05-09T12:10:35.992Z,9.02
2024-05-09T12:13:05.823Z,9.35
2024-05-09T12:15:36.637Z,8.73
2024-05-09T12:18:04.797Z,11.40
2024-05-09T12:20:37.393Z,11.68
2024-05-09T12:23:08.409Z,11.15
2024-05-09T12:25:36.544Z,11.88
2024-05-09T12:28:03.587Z,12.45
2024-05-09T12:30:36.643Z,12.13
2024-05-09T12:33:08.597Z,12.27
2024-05-09T12:35:35.742Z,11.93
2024-05-09T12:38:02.746Z,13.50
2024-05-09T12:40:36.381Z,11.38
2024-05-09T12:43:09.586Z,11.45
2024-05-09T12:45:37.931Z,11.23
2024-05-09T12:48:07.573Z,11.05
2024-05-09T12:50:35.172Z,74.78
2024-05-09T12:53:03.489Z,17.55
2024-05-09T12:55:37.347Z,13.18
2024-05-09T12:58:11.635Z,14.52
2024-05-09T13:00:38.777Z,15.68
2024-05-09T13:03:05.938Z,18.60
2024-05-09T13:05:32.785Z,13.20
2024-05-09T13:08:00.689Z,12.57
2024-05-09T13:10:32.142Z,12.27
2024-05-09T13:13:00.905Z,12.68
2024-05-09T13:15:28.551Z,12.73
2024-05-09T13:17:58.310Z,13.02
2024-05-09T13:20:32.783Z,14.68
2024-05-09T13:23:03.043Z,14.38
2024-05-09T13:25:29.827Z,12.38
2024-05-09T13:27:57.395Z,13.30
2024-05-09T13:32:59.056Z,14.38
2024-05-09T13:35:26.710Z,15.23
2024-05-09T13:37:53.438Z,16.88
2024-05-09T13:40:29.826Z,15.13
2024-05-09T13:43:01.994Z,15.48
2024-05-09T13:45:28.902Z,13.35
2024-05-09T13:47:55.970Z,14.82
2024-05-09T13:50:31.121Z,13.63
2024-05-09T13:53:01.950Z,16.27
2024-05-09T13:55:28.786Z,16.67
2024-05-09T13:57:56.026Z,15.07
2024-05-09T14:00:33.209Z,15.07
2024-05-09T14:03:09.890Z,14.20
2024-05-09T14:05:37.048Z,15.93
2024-05-09T14:08:04.268Z,15.32
2024-05-09T14:10:32.221Z,15.45
2024-05-09T14:13:01.162Z,15.10
2024-05-09T14:15:28.209Z,17.45
2024-05-09T14:17:55.626Z,16.27
2024-05-09T14:20:30.568Z,15.48
2024-05-09T14:22:59.645Z,15.30
2024-05-09T14:25:30.486Z,14.82
2024-05-09T14:28:00.202Z,16.48
2024-05-09T14:30:34.805Z,17.35
2024-05-09T14:33:05.719Z,15.52
2024-05-09T14:35:33.216Z,13.90
2024-05-09T14:38:00.061Z,21.35
2024-05-09T14:40:37.050Z,15.50
2024-05-09T14:43:10.240Z,12.90
2024-05-09T14:45:37.199Z,11.35
2024-05-09T14:48:04.458Z,13.93
2024-05-09T14:50:36.676Z,13.77
2024-05-09T14:53:13.173Z,15.98
2024-05-09T14:55:42.793Z,15.55
2024-05-09T14:58:13.994Z,12.40
2024-05-09T15:00:46.952Z,11.82
2024-05-09T15:03:18.300Z,13.82
2024-05-09T15:05:45.387Z,14.25
2024-05-09T15:08:12.324Z,13.13
2024-05-09T15:10:39.250Z,13.13
2024-05-09T15:13:08.115Z,14.48
2024-05-09T15:15:36.835Z,13.88
2024-05-09T15:18:04.853Z,14.00
2024-05-09T15:20:35.782Z,13.77
2024-05-09T15:23:06.471Z,15.05
2024-05-09T15:25:34.921Z,12.68
2024-05-09T15:28:01.781Z,16.88
2024-05-09T15:30:32.014Z,12.98
2024-05-09T15:33:01.427Z,17.48
2024-05-09T15:35:28.407Z,13.23
2024-05-09T15:37:55.802Z,12.38
2024-05-09T15:40:31.665Z,14.48
2024-05-09T15:43:05.888Z,12.85
2024-05-09T15:45:32.977Z,15.00
2024-05-09T15:48:00.394Z,15.63
2024-05-09T15:50:36.232Z,15.25
2024-05-09T15:53:07.247Z,16.50
2024-05-09T15:55:34.953Z,15.93
2024-05-09T15:58:03.057Z,16.15
2024-05-09T16:00:37.567Z,14.23
2024-05-09T16:03:08.319Z,14.80
2024-05-09T16:05:35.178Z,15.70
2024-05-09T16:08:02.459Z,15.70
2024-05-09T16:10:32.857Z,17.83
2024-05-09T16:13:01.815Z,16.73
2024-05-09T16:15:28.993Z,15.77
2024-05-09T16:17:56.443Z,14.88
2024-05-09T16:22:53.222Z,15.88
2024-05-09T16:25:20.059Z,14.98
2024-05-09T16:27:47.057Z,16.50
2024-05-09T16:30:21.275Z,16.00
2024-05-09T16:32:55.019Z,17.73
2024-05-09T16:35:21.820Z,16.02
2024-05-09T16:37:49.022Z,15.80
2024-05-09T16:40:24.941Z,15.73
2024-05-09T16:43:03.288Z,15.55
2024-05-09T16:45:30.315Z,15.43
2024-05-09T16:47:57.386Z,16.58
2024-05-09T16:50:29.440Z,17.75
2024-05-09T16:53:00.200Z,17.90
2024-05-09T16:55:27.378Z,15.43
2024-05-09T16:57:55.424Z,16.70
2024-05-09T17:00:31.728Z,15.80
2024-05-09T17:03:07.327Z,14.68
2024-05-09T17:05:35.238Z,17.42
2024-05-09T17:08:02.935Z,15.10
2024-05-09T17:10:33.417Z,14.48
2024-05-09T17:13:06.610Z,15.85
2024-05-09T17:15:35.633Z,16.13
2024-05-09T17:18:03.790Z,17.40
2024-05-09T17:20:34.616Z,16.15
2024-05-09T17:23:05.071Z,15.93
2024-05-09T17:25:32.630Z,14.88
2024-05-09T17:28:06.409Z,16.33
2024-05-09T17:30:36.681Z,17.98
2024-05-09T17:33:06.870Z,15.82
2024-05-09T17:35:34.595Z,14.63
2024-05-09T17:38:01.814Z,16.55
2024-05-09T17:40:33.600Z,14.93
2024-05-09T17:43:03.903Z,14.60
2024-05-09T17:45:31.433Z,17.17
2024-05-09T17:47:58.641Z,17.52
2024-05-09T17:50:31.682Z,16.98
2024-05-09T17:53:02.670Z,20.33
2024-05-09T17:55:29.779Z,18.23
2024-05-09T17:57:56.968Z,21.42
2024-05-09T18:00:36.048Z,15.63
2024-05-09T18:03:06.632Z,19.50
2024-05-09T18:05:38.259Z,14.55
2024-05-09T18:08:06.587Z,17.80
2024-05-09T18:10:37.607Z,17.83
2024-05-09T18:13:10.271Z,17.35
2024-05-09T18:15:38.336Z,18.83
2024-05-09T18:18:06.014Z,18.15
2024-05-09T18:20:41.610Z,20.85
2024-05-09T18:23:15.316Z,14.80
2024-05-09T18:25:43.466Z,17.58
2024-05-09T18:28:10.540Z,18.00
2024-05-09T18:30:37.863Z,20.30
2024-05-09T18:33:07.665Z,16.67
2024-05-09T18:35:35.519Z,18.83
2024-05-09T18:38:02.682Z,16.60
2024-05-09T18:40:34.407Z,17.15
2024-05-09T18:43:05.352Z,18.42
2024-05-09T18:45:33.536Z,17.13
2024-05-09T18:48:00.557Z,16.40
2024-05-09T18:50:34.910Z,16.35
2024-05-09T18:53:08.688Z,18.20
2024-05-09T18:55:38.193Z,16.58
2024-05-09T18:58:05.451Z,19.33
2024-05-09T19:00:36.292Z,17.80
2024-05-09T19:03:11.248Z,17.73
2024-05-09T19:05:40.936Z,20.48
2024-05-09T19:08:08.496Z,19.23
2024-05-09T19:10:38.636Z,23.30
2024-05-09T19:13:12.089Z,19.15
2024-05-09T19:18:08.557Z,18.95
2024-05-09T19:20:36.646Z,19.23
2024-05-09T19:23:05.643Z,18.67
2024-05-09T19:25:33.121Z,18.83
2024-05-09T19:28:00.748Z,18.77
2024-05-09T19:30:36.705Z,18.40
2024-05-09T19:33:07.835Z,16.80
2024-05-09T19:35:34.688Z,16.88
2024-05-09T19:38:01.817Z,17.38
2024-05-09T19:40:31.957Z,16.38
2024-05-09T19:43:01.999Z,19.88
2024-05-09T19:45:29.624Z,21.55
2024-05-09T19:47:56.705Z,22.70
2024-05-09T19:50:32.155Z,21.60
2024-05-09T19:53:06.708Z,18.70
2024-05-09T19:55:33.769Z,21.55
2024-05-09T19:58:05.092Z,19.05
2024-05-09T20:00:39.265Z,16.35
2024-05-09T20:03:08.774Z,23.98
2024-05-09T20:05:36.947Z,19.08
2024-05-09T20:08:04.690Z,17.83
2024-05-09T20:10:33.749Z,19.13
2024-05-09T20:13:02.636Z,20.10
2024-05-09T20:15:29.672Z,23.98
2024-05-09T20:17:57.005Z,18.58
2024-05-09T20:20:32.678Z,16.45
2024-05-09T20:23:05.083Z,14.98
2024-05-09T20:25:31.754Z,17.02
2024-05-09T20:27:58.459Z,15.18
2024-05-09T20:30:31.379Z,15.50
2024-05-09T20:33:00.686Z,17.80
2024-05-09T20:35:30.548Z,16.45
2024-05-09T20:37:57.330Z,15.18
2024-05-09T20:40:29.236Z,14.43
2024-05-09T20:43:00.402Z,15.85
2024-05-09T20:45:27.278Z,19.40
2024-05-09T20:47:54.102Z,13.95
2024-05-09T20:50:28.862Z,14.85
2024-05-09T20:53:03.322Z,17.10
2024-05-09T20:55:30.353Z,15.88
2024-05-09T20:57:57.753Z,12.90
2024-05-09T21:00:34.352Z,12.82
2024-05-09T21:03:07.007Z,17.08
2024-05-09T21:05:34.985Z,13.40
2024-05-09T21:08:02.348Z,13.10
2024-05-09T21:10:32.863Z,13.07
2024-05-09T21:13:01.377Z,14.77
2024-05-09T21:15:28.391Z,12.10
2024-05-09T21:17:55.291Z,14.55
2024-05-09T21:20:28.739Z,14.93
2024-05-09T21:22:58.276Z,15.55
2024-05-09T21:25:24.989Z,13.82
2024-05-09T21:27:52.332Z,13.35
2024-05-09T21:30:31.198Z,14.90
2024-05-09T21:33:05.844Z,13.05
2024-05-09T21:35:32.856Z,14.95
2024-05-09T21:37:59.530Z,15.00
2024-05-09T21:40:33.418Z,11.90
2024-05-09T21:43:02.334Z,12.50
2024-05-09T21:45:29.092Z,10.85
2024-05-09T21:47:56.004Z,11.07
2024-05-09T21:50:28.535Z,11.52
2024-05-09T21:53:03.056Z,9.65
2024-05-09T21:55:30.166Z,12.20
2024-05-09T21:57:57.080Z,11.02
2024-05-09T22:00:32.060Z,11.43
2024-05-09T22:03:03.505Z,12.20
2024-05-09T22:05:30.731Z,9.07
2024-05-09T22:07:57.625Z,9.82
2024-05-09T22:10:30.767Z,9.80
2024-05-09T22:13:01.288Z,10.98
2024-05-09T22:15:28.131Z,11.88
2024-05-09T22:17:56.460Z,9.68
2024-05-09T22:20:32.866Z,9.00
2024-05-09T22:23:04.184Z,9.18
2024-05-09T22:25:32.128Z,9.77
2024-05-09T22:27:59.513Z,10.65
2024-05-09T22:30:34.400Z,11.32
2024-05-09T22:33:05.942Z,10.27
2024-05-09T22:35:33.070Z,11.35
2024-05-09T22:37:59.846Z,10.70
2024-05-09T22:40:38.176Z,9.20
2024-05-09T22:43:13.162Z,9.80
2024-05-09T22:45:40.258Z,11.90
2024-05-09T22:48:08.263Z,7.35
2024-05-09T22:50:35.210Z,9.13
2024-05-09T22:53:02.088Z,9.68
2024-05-09T22:55:29.024Z,11.18
2024-05-09T22:57:56.199Z,15.57
2024-05-09T23:00:31.088Z,11.50
2024-05-09T23:03:00.446Z,11.65
2024-05-09T23:05:27.571Z,9.80
2024-05-09T23:07:54.427Z,9.38
2024-05-09T23:10:28.157Z,8.80
2024-05-09T23:13:01.526Z,12.88
2024-05-09T23:15:28.544Z,8.18
2024-05-09T23:17:55.551Z,8.98
2024-05-09T23:20:33.107Z,8.70
2024-05-09T23:23:04.857Z,12.05
2024-05-09T23:25:31.560Z,9.02
2024-05-09T23:27:58.400Z,10.82
2024-05-09T23:32:55.060Z,8.75
2024-05-09T23:35:21.927Z,11.77
2024-05-09T23:37:48.712Z,8.68
2024-05-09T23:40:18.857Z,9.55
2024-05-09T23:42:49.446Z,9.38
2024-05-09T23:45:16.257Z,8.35
2024-05-09T23:47:43.234Z,9.80
2024-05-09T23:50:16.770Z,8.95
2024-05-09T23:52:50.174Z,10.43
2024-05-09T23:55:16.970Z,13.40
2024-05-09T23:57:43.779Z,10.48
